sim
Sign-in with your pilot id or email,
or register
Callsign
Passwort

Schedule Details

Flight Number: DLH2306 (3)
Departure: Munich Airport (EDDM) at 13:45
Arrival: Amsterdam Schiphol Airport (EHAM) at 15:20
Route: Lufthansa Passenger Schedule. Enter filed route here before submitting Pirep.

Weather Information
Getting current METAR information for EDDM 241720Z 08005KT CAVOK 18/13 Q1006 NOSIG
Getting current METAR information for EHAM 241725Z 13006KT 9999 FEW022 SCT039 13/11 Q0997 NOSIG

Schedule Frequency

Route Map